Time;durP1;ratioP1;P1;durP2;ratioP2;P2;SDS_P1;SDS_P2;PMS_P1;PMS_P2;Temp;Humidity;BMP_temperature;BMP_pressure;BME280_temperature;BME280_humidity;BME280_pressure;Samples;Min_cycle;Max_cycle;Signal;HPM_P1;HPM_P2
2021/10/09 00:01:24;;;;;;;34.07;22.97;;;10.60;99.90;;;;;;5005471;28;20200;-79
2021/10/09 00:03:51;;;;;;;37.20;23.23;;;10.50;99.90;;;;;;5019805;28;20188;-79
2021/10/09 00:06:17;;;;;;;31.27;21.60;;;10.50;99.90;;;;;;5022441;28;20207;-80
2021/10/09 00:08:43;;;;;;;31.03;21.67;;;10.50;99.90;;;;;;5004420;28;20197;-80
2021/10/09 00:11:16;;;;;;;36.87;22.13;;;10.50;99.90;;;;;;5022498;28;20179;-79
2021/10/09 00:13:41;;;;;;;32.67;21.93;;;10.50;99.90;;;;;;5022435;28;20177;-79
2021/10/09 00:16:07;;;;;;;35.37;21.87;;;10.50;99.90;;;;;;5005014;28;20797;-79
2021/10/09 00:18:33;;;;;;;32.40;21.80;;;10.50;99.90;;;;;;5004428;28;20203;-80
2021/10/09 00:20:59;;;;;;;29.93;22.10;;;10.50;99.90;;;;;;5004257;28;20573;-79
2021/10/09 00:23:24;;;;;;;30.33;21.87;;;10.50;99.90;;;;;;5004699;28;20179;-80
2021/10/09 00:25:50;;;;;;;35.97;22.70;;;10.50;99.90;;;;;;5022028;28;20612;-79
2021/10/09 00:28:15;;;;;;;30.27;22.83;;;10.50;99.90;;;;;;5021761;28;20291;-79
2021/10/09 00:30:41;;;;;;;29.07;21.67;;;10.40;99.90;;;;;;5021828;28;20234;-79
2021/10/09 00:33:07;;;;;;;33.63;22.47;;;10.40;99.90;;;;;;5022027;28;20531;-80
2021/10/09 00:35:32;;;;;;;32.97;22.10;;;10.40;99.90;;;;;;5021614;28;20203;-79
2021/10/09 00:37:58;;;;;;;29.87;22.17;;;10.40;99.90;;;;;;5018621;28;20208;-80
2021/10/09 00:40:24;;;;;;;36.27;22.70;;;10.40;99.90;;;;;;5021987;28;20184;-79
2021/10/09 00:42:50;;;;;;;32.17;22.60;;;10.40;99.90;;;;;;5021596;28;20259;-79
2021/10/09 00:45:15;;;;;;;34.17;22.83;;;10.30;99.90;;;;;;5022126;28;20221;-79
2021/10/09 00:47:41;;;;;;;32.83;23.27;;;10.30;99.90;;;;;;5003571;28;20207;-79
2021/10/09 00:50:07;;;;;;;32.33;22.43;;;10.30;99.90;;;;;;5021793;28;20176;-79
2021/10/09 00:52:35;;;;;;;31.97;22.90;;;10.30;99.90;;;;;;5021856;28;20187;-80
2021/10/09 00:55:04;;;;;;;34.17;23.43;;;10.20;99.90;;;;;;5021244;28;20193;-79
2021/10/09 00:57:30;;;;;;;33.63;23.40;;;10.20;99.90;;;;;;5004066;28;20196;-79
2021/10/09 00:59:59;;;;;;;36.73;23.50;;;10.30;99.90;;;;;;5021233;28;20176;-79
2021/10/09 01:02:25;;;;;;;33.43;22.97;;;10.30;99.90;;;;;;5003611;28;20186;-79
2021/10/09 01:04:52;;;;;;;33.00;22.83;;;10.20;99.90;;;;;;5021142;28;20210;-79
2021/10/09 01:07:18;;;;;;;34.23;23.33;;;10.20;99.90;;;;;;5003320;28;20273;-79
2021/10/09 01:09:46;;;;;;;32.90;23.77;;;10.10;99.90;;;;;;5021258;28;20314;-79
2021/10/09 01:12:14;;;;;;;35.07;23.07;;;10.00;99.90;;;;;;5003888;28;20184;-79
2021/10/09 01:14:40;;;;;;;33.77;22.50;;;10.00;99.90;;;;;;5002781;28;20177;-79
2021/10/09 01:17:08;;;;;;;33.77;23.67;;;10.00;99.90;;;;;;5003278;28;20231;-80
2021/10/09 01:19:34;;;;;;;34.33;23.03;;;10.00;99.90;;;;;;5020595;28;20179;-79
2021/10/09 01:21:59;;;;;;;32.80;22.13;;;10.00;99.90;;;;;;5003865;28;20235;-79
2021/10/09 01:24:25;;;;;;;34.40;24.63;;;10.00;99.90;;;;;;5021353;28;20181;-79
2021/10/09 01:26:51;;;;;;;31.83;22.83;;;10.00;99.90;;;;;;5003411;28;20189;-79
2021/10/09 01:29:16;;;;;;;35.03;22.63;;;9.90;99.90;;;;;;5020996;28;20221;-79
2021/10/09 01:31:42;;;;;;;32.47;21.83;;;9.90;99.90;;;;;;5003847;28;20552;-80
2021/10/09 01:34:08;;;;;;;33.07;22.83;;;9.90;99.90;;;;;;5021307;28;20172;-78
2021/10/09 01:36:36;;;;;;;32.97;22.47;;;9.90;99.90;;;;;;5020821;28;20200;-79
2021/10/09 01:39:05;;;;;;;35.00;22.63;;;9.90;99.90;;;;;;5020951;28;20186;-79
2021/10/09 01:41:39;;;;;;;30.83;22.37;;;9.90;99.90;;;;;;5003361;28;20180;-79
2021/10/09 01:44:05;;;;;;;33.30;22.50;;;9.90;99.90;;;;;;5018317;28;20189;-79
2021/10/09 01:46:30;;;;;;;30.77;22.03;;;10.00;99.90;;;;;;5048178;23;20760;-82
2021/10/09 01:48:56;;;;;;;28.63;21.10;;;10.10;99.90;;;;;;5036578;28;20196;-82
2021/10/09 01:51:21;;;;;;;28.40;20.63;;;10.00;99.90;;;;;;5035435;28;20221;-82
2021/10/09 01:53:47;;;;;;;31.57;21.93;;;9.90;99.90;;;;;;5036945;28;20228;-82
2021/10/09 01:56:13;;;;;;;27.67;20.30;;;10.00;99.90;;;;;;5037843;28;20256;-82
2021/10/09 01:58:39;;;;;;;30.43;20.43;;;10.00;99.90;;;;;;5038663;28;20183;-82
2021/10/09 02:01:05;;;;;;;30.30;21.03;;;10.00;99.90;;;;;;5037959;28;20196;-82
2021/10/09 02:03:30;;;;;;;29.00;20.23;;;9.90;99.90;;;;;;5037597;28;20187;-82
2021/10/09 02:05:56;;;;;;;29.07;20.07;;;10.00;99.90;;;;;;5038578;28;20256;-82
2021/10/09 02:08:22;;;;;;;32.53;22.27;;;10.00;99.90;;;;;;5038900;28;20196;-82
2021/10/09 02:10:56;;;;;;;30.50;21.37;;;10.00;99.90;;;;;;5037014;28;20172;-82
2021/10/09 02:13:31;;;;;;;32.33;21.27;;;9.90;99.90;;;;;;5035969;28;20175;-82
2021/10/09 02:16:05;;;;;;;32.70;21.93;;;10.00;99.90;;;;;;5038730;28;20720;-82
2021/10/09 02:26:51;;;;;;;31.77;22.37;;;9.70;99.90;;;;;;5037335;28;20199;-82
2021/10/09 02:29:17;;;;;;;34.00;23.50;;;9.70;99.90;;;;;;5038100;28;20183;-82
2021/10/09 02:31:43;;;;;;;33.23;22.67;;;9.60;99.90;;;;;;5037558;28;20222;-82
2021/10/09 02:34:09;;;;;;;35.60;23.30;;;9.50;99.90;;;;;;5038645;28;20167;-81
2021/10/09 02:36:34;;;;;;;31.90;22.43;;;9.50;99.90;;;;;;5036951;28;20194;-82
2021/10/09 02:39:00;;;;;;;30.07;21.50;;;9.60;99.90;;;;;;5036056;28;20183;-82
2021/10/09 02:41:26;;;;;;;31.87;21.87;;;9.60;99.90;;;;;;5038020;28;20178;-82
2021/10/09 02:43:51;;;;;;;34.87;23.70;;;9.60;99.90;;;;;;5037207;28;20206;-82
2021/10/09 02:46:17;;;;;;;30.07;22.53;;;9.60;99.90;;;;;;5036635;28;20238;-82
2021/10/09 02:48:42;;;;;;;30.20;22.70;;;9.60;99.90;;;;;;5041992;28;20195;-81
2021/10/09 02:51:08;;;;;;;30.93;21.33;;;9.60;99.90;;;;;;5049467;28;20183;-81
2021/10/09 02:53:34;;;;;;;30.47;21.63;;;9.60;99.90;;;;;;5047949;28;20175;-81
2021/10/09 02:56:00;;;;;;;27.43;21.20;;;9.90;99.90;;;;;;5043385;28;20727;-83
2021/10/09 02:58:26;;;;;;;27.77;20.67;;;9.60;99.90;;;;;;5038201;28;20186;-82
2021/10/09 03:00:51;;;;;;;31.50;22.47;;;9.60;99.90;;;;;;5037679;28;20187;-82
2021/10/09 03:03:17;;;;;;;32.07;21.50;;;9.50;99.90;;;;;;5038169;28;20190;-82
2021/10/09 03:05:43;;;;;;;28.17;20.53;;;9.50;99.90;;;;;;5040750;28;20677;-82
2021/10/09 03:08:11;;;;;;;29.90;20.10;;;7.80;99.90;;;;;;5042813;28;20541;-82
2021/10/09 03:10:37;;;;;;;27.03;19.97;;;9.40;99.90;;;;;;5036314;28;20629;-82
2021/10/09 03:13:03;;;;;;;25.83;20.33;;;9.40;99.90;;;;;;5037998;28;20182;-82
2021/10/09 03:15:28;;;;;;;25.40;19.23;;;9.40;99.90;;;;;;5037801;28;20202;-82
2021/10/09 03:17:54;;;;;;;26.47;19.70;;;9.50;99.90;;;;;;5037223;28;20321;-82
2021/10/09 03:20:20;;;;;;;26.40;18.93;;;9.30;99.90;;;;;;5036608;28;20175;-82
2021/10/09 03:22:47;;;;;;;26.63;19.57;;;9.40;99.90;;;;;;5037739;28;20183;-82
2021/10/09 03:25:14;;;;;;;25.53;19.57;;;9.30;99.90;;;;;;5038189;28;20225;-81
2021/10/09 03:27:40;;;;;;;26.97;19.07;;;9.30;99.90;;;;;;5037559;28;20684;-82
2021/10/09 03:30:07;;;;;;;28.27;19.63;;;9.30;99.90;;;;;;5037672;28;20182;-82
2021/10/09 03:32:34;;;;;;;24.53;18.70;;;;;;;;;;5035447;28;20198;-82
2021/10/09 03:34:59;;;;;;;26.63;20.10;;;9.30;99.90;;;;;;5031933;28;20175;-81
2021/10/09 03:37:26;;;;;;;27.50;19.30;;;9.10;99.90;;;;;;5018170;28;20560;-81
2021/10/09 03:39:53;;;;;;;26.07;19.67;;;9.20;99.90;;;;;;5033757;28;20711;-81
2021/10/09 03:42:27;;;;;;;23.60;18.73;;;9.20;99.90;;;;;;5033959;28;20198;-81
2021/10/09 03:45:17;;;;;;;27.20;19.83;;;9.20;99.90;;;;;;5029707;28;20174;-82
2021/10/09 03:48:19;;;;;;;30.13;19.53;;;9.20;99.90;;;;;;5033228;28;20210;-83
2021/10/09 03:52:23;;;;;;;28.93;20.30;;;9.30;99.90;;;;;;5033044;28;20171;-82
2021/10/09 03:53:18;;;;;;;26.97;20.17;;;9.20;99.90;;;;;;5030770;28;20194;-83
2021/10/09 03:55:44;;;;;;;31.33;21.37;;;9.20;99.90;;;;;;5032180;28;20198;-82
2021/10/09 03:58:10;;;;;;;25.87;19.70;;;9.20;99.90;;;;;;5032390;28;20206;-83
2021/10/09 04:00:35;;;;;;;26.70;19.50;;;9.20;99.90;;;;;;5030388;28;20178;-80
2021/10/09 04:03:01;;;;;;;26.33;18.63;;;9.20;99.90;;;;;;5033090;28;20183;-81
2021/10/09 04:05:27;;;;;;;23.77;18.43;;;9.10;99.90;;;;;;5017392;28;20564;-82
2021/10/09 04:07:52;;;;;;;25.07;19.10;;;9.10;99.90;;;;;;5017828;28;20191;-82
2021/10/09 04:10:18;;;;;;;26.83;20.10;;;9.30;99.90;;;;;;5031482;28;20178;-82
2021/10/09 04:12:44;;;;;;;24.13;18.13;;;9.20;99.90;;;;;;5018701;28;20177;-82
2021/10/09 04:15:09;;;;;;;30.00;19.80;;;9.30;99.90;;;;;;5021199;28;20186;-82
2021/10/09 04:17:35;;;;;;;23.93;19.00;;;9.30;99.90;;;;;;5019202;28;20187;-80
2021/10/09 04:20:01;;;;;;;25.23;18.60;;;9.50;99.90;;;;;;5022461;28;20554;-81
2021/10/09 04:22:26;;;;;;;25.63;17.50;;;9.50;99.90;;;;;;5024563;28;20209;-82
2021/10/09 04:24:52;;;;;;;24.40;18.77;;;9.20;99.90;;;;;;5037886;28;20662;-82
2021/10/09 04:27:17;;;;;;;25.57;18.17;;;9.30;99.90;;;;;;5035699;28;20605;-82
2021/10/09 04:29:43;;;;;;;27.13;18.73;;;9.10;99.90;;;;;;5037887;28;20166;-82
2021/10/09 04:32:09;;;;;;;27.60;19.97;;;9.10;99.90;;;;;;5039267;28;20180;-82
2021/10/09 04:34:34;;;;;;;23.00;17.93;;;9.10;99.90;;;;;;5037366;28;20351;-81
2021/10/09 04:37:00;;;;;;;24.67;18.50;;;9.10;99.90;;;;;;5036502;28;20282;-82
2021/10/09 04:39:25;;;;;;;21.47;16.57;;;9.10;99.90;;;;;;5037488;28;20193;-82
2021/10/09 04:41:52;;;;;;;26.40;17.67;;;9.10;99.90;;;;;;5037086;28;20224;-81
2021/10/09 04:44:17;;;;;;;23.63;17.17;;;9.10;99.90;;;;;;5033251;28;20304;-81
2021/10/09 04:46:43;;;;;;;26.17;18.10;;;9.10;99.90;;;;;;5000163;28;1103333;-82
2021/10/09 04:49:09;;;;;;;23.77;18.33;;;9.10;99.90;;;;;;5038711;28;20207;-82
2021/10/09 04:51:36;;;;;;;26.20;18.77;;;9.10;99.90;;;;;;5040282;28;20183;-81
2021/10/09 04:54:02;;;;;;;24.10;17.03;;;9.10;99.90;;;;;;5038822;28;20529;-82
2021/10/09 04:56:28;;;;;;;28.00;18.53;;;9.10;99.90;;;;;;5040061;28;20209;-82
2021/10/09 04:58:54;;;;;;;23.53;16.73;;;9.00;99.90;;;;;;5038641;28;20564;-81
2021/10/09 05:01:19;;;;;;;28.33;18.40;;;9.10;99.90;;;;;;5038024;28;20228;-81
2021/10/09 05:03:45;;;;;;;23.50;17.40;;;9.10;99.90;;;;;;5042463;28;20186;-81
2021/10/09 05:06:10;;;;;;;26.17;17.47;;;9.10;99.90;;;;;;5040257;28;20579;-81
2021/10/09 05:08:36;;;;;;;25.13;17.63;;;9.10;99.90;;;;;;5041911;28;20206;-81
2021/10/09 05:11:02;;;;;;;24.43;17.57;;;9.10;99.90;;;;;;5038871;28;20178;-81
2021/10/09 05:13:28;;;;;;;24.20;17.10;;;9.10;99.90;;;;;;5039070;28;20243;-81
2021/10/09 05:15:53;;;;;;;22.87;17.87;;;9.10;99.90;;;;;;5038040;28;20225;-81
2021/10/09 05:18:19;;;;;;;22.93;17.93;;;9.10;99.90;;;;;;5039531;28;20652;-82
2021/10/09 05:20:45;;;;;;;28.00;18.77;;;9.10;99.90;;;;;;5039552;28;20187;-81
2021/10/09 05:23:11;;;;;;;26.47;19.00;;;9.10;99.90;;;;;;5040008;28;20194;-81
2021/10/09 05:25:37;;;;;;;21.87;17.30;;;9.10;99.90;;;;;;5037361;28;20206;-82
2021/10/09 05:28:10;;;;;;;22.10;18.07;;;9.10;99.90;;;;;;5038666;28;20353;-82
2021/10/09 05:30:36;;;;;;;22.80;18.03;;;9.10;99.90;;;;;;5038159;28;20175;-81
2021/10/09 05:35:44;;;;;;;27.70;18.40;;;9.00;99.90;;;;;;5037932;28;20664;-81
2021/10/09 05:38:10;;;;;;;27.47;19.33;;;9.00;99.90;;;;;;5037885;28;20214;-82
2021/10/09 05:40:36;;;;;;;28.13;18.60;;;9.10;99.90;;;;;;5031566;28;20212;-81
2021/10/09 05:43:02;;;;;;;28.40;18.30;;;9.10;99.90;;;;;;5037595;28;20186;-81
2021/10/09 05:45:28;;;;;;;27.97;21.03;;;9.10;99.90;;;;;;5038446;28;20690;-81
2021/10/09 05:47:54;;;;;;;27.50;20.37;;;9.10;99.90;;;;;;5043222;28;20208;-81
2021/10/09 05:50:24;;;;;;;27.60;19.53;;;9.00;99.90;;;;;;5047123;28;20175;-81
2021/10/09 05:53:07;;;;;;;30.90;19.53;;;9.00;99.90;;;;;;5037001;28;20600;-81
2021/10/09 05:56:18;;;;;;;27.53;19.50;;;9.00;99.90;;;;;;5037700;28;20203;-81
2021/10/09 05:58:30;;;;;;;31.77;19.50;;;9.00;99.90;;;;;;5036181;28;20190;-81
2021/10/09 06:25:50;;;;;;;24.93;19.00;;;9.20;99.90;;;;;;5037113;28;20292;-80
2021/10/09 07:00:44;;;;;;;26.07;17.27;;;9.50;99.90;;;;;;5034775;28;20173;-78
2021/10/09 07:03:10;;;;;;;27.33;17.23;;;9.50;99.90;;;;;;5034713;28;20542;-79
2021/10/09 07:05:41;;;;;;;21.30;16.00;;;9.60;99.90;;;;;;5035340;28;20228;-82
2021/10/09 07:08:09;;;;;;;24.00;17.13;;;9.60;99.90;;;;;;5037333;28;20194;-80
2021/10/09 07:10:41;;;;;;;21.50;16.57;;;9.70;99.90;;;;;;5036725;28;20188;-81
2021/10/09 07:13:08;;;;;;;22.47;17.50;;;9.80;99.90;;;;;;5034676;28;20262;-82
2021/10/09 07:15:35;;;;;;;22.63;17.60;;;9.80;99.90;;;;;;5036249;28;20183;-82
2021/10/09 07:18:01;;;;;;;22.07;16.97;;;9.80;99.90;;;;;;5037281;28;20178;-82
2021/10/09 07:20:27;;;;;;;20.43;16.97;;;9.80;99.90;;;;;;5036843;28;20185;-82
2021/10/09 07:22:53;;;;;;;26.13;18.10;;;9.80;99.90;;;;;;5036404;28;20571;-82
2021/10/09 07:25:19;;;;;;;21.93;16.83;;;9.70;99.90;;;;;;5036568;28;20203;-82
2021/10/09 07:27:46;;;;;;;23.40;17.70;;;9.70;99.90;;;;;;5038268;28;20197;-83
2021/10/09 07:30:12;;;;;;;20.07;16.83;;;9.70;99.90;;;;;;5038371;28;20172;-83
2021/10/09 07:32:38;;;;;;;21.87;16.30;;;9.70;99.90;;;;;;5036874;28;20731;-83
2021/10/09 07:35:04;;;;;;;23.47;17.20;;;9.70;99.90;;;;;;5039281;28;20195;-82
2021/10/09 07:37:30;;;;;;;23.87;16.60;;;9.70;99.90;;;;;;5042132;28;20601;-83
2021/10/09 07:39:56;;;;;;;22.73;16.63;;;9.80;99.90;;;;;;5040324;28;20179;-83
2021/10/09 07:42:21;;;;;;;21.03;16.70;;;9.90;99.90;;;;;;5042300;28;20198;-83
2021/10/09 07:44:49;;;;;;;17.23;14.90;;;9.90;99.90;;;;;;5042866;28;20183;-83
2021/10/09 07:47:16;;;;;;;18.37;14.73;;;10.00;99.90;;;;;;5108873;22;20258;-80
2021/10/09 07:49:42;;;;;;;19.90;14.47;;;10.10;99.90;;;;;;5027961;28;20213;-80
2021/10/09 07:52:08;;;;;;;18.20;14.93;;;10.20;99.90;;;;;;5026419;28;20180;-80
2021/10/09 07:54:34;;;;;;;19.00;14.13;;;10.20;99.90;;;;;;5040589;28;20538;-79
2021/10/09 07:57:00;;;;;;;18.33;14.53;;;10.40;99.90;;;;;;5025451;28;20262;-80
2021/10/09 07:59:26;;;;;;;20.00;13.97;;;10.20;99.90;;;;;;5010076;28;20653;-80
2021/10/09 08:01:52;;;;;;;18.23;14.47;;;10.20;99.90;;;;;;5009680;28;20189;-80
2021/10/09 08:04:18;;;;;;;16.57;13.77;;;10.20;99.90;;;;;;5038043;28;20592;-79
2021/10/09 08:06:43;;;;;;;16.40;13.33;;;10.20;99.90;;;;;;5026156;28;20191;-80
2021/10/09 08:09:10;;;;;;;17.53;14.00;;;10.30;99.90;;;;;;5024810;28;20285;-80
2021/10/09 08:11:35;;;;;;;17.00;14.47;;;10.30;99.90;;;;;;5024557;28;20179;-80
2021/10/09 08:14:03;;;;;;;17.93;14.00;;;10.30;99.90;;;;;;5008880;28;20253;-80
2021/10/09 08:16:29;;;;;;;17.70;13.83;;;10.40;99.90;;;;;;5026225;28;20233;-80
2021/10/09 08:18:57;;;;;;;18.20;13.67;;;10.40;99.90;;;;;;4999208;28;20189;-80
2021/10/09 08:21:25;;;;;;;15.50;13.03;;;10.40;99.90;;;;;;5020780;28;20180;-80
2021/10/09 08:39:44;;;;;;;17.27;13.27;;;10.70;99.90;;;;;;5025435;28;20534;-81
2021/10/09 08:42:11;;;;;;;15.73;13.07;;;10.80;99.90;;;;;;5008981;28;20182;-81
2021/10/09 08:44:41;;;;;;;18.43;13.97;;;10.80;99.90;;;;;;5024460;28;20191;-81
2021/10/09 08:47:10;;;;;;;15.17;13.30;;;10.90;99.90;;;;;;5031108;28;20284;-79
2021/10/09 08:49:36;;;;;;;15.03;13.00;;;10.90;99.90;;;;;;5015394;28;20255;-81
2021/10/09 08:52:03;;;;;;;16.33;13.40;;;11.00;99.90;;;;;;5035938;28;20177;-80
2021/10/09 08:54:37;;;;;;;15.67;12.77;;;11.10;99.90;;;;;;5035606;28;20163;-80
2021/10/09 08:57:20;;;;;;;18.40;12.40;;;11.20;99.90;;;;;;5010375;28;20224;-80
2021/10/09 08:59:58;;;;;;;16.40;12.33;;;11.30;99.90;;;;;;5040776;28;20204;-81
2021/10/09 09:02:31;;;;;;;15.17;12.73;;;11.40;99.90;;;;;;5008208;28;20174;-81
2021/10/09 09:05:13;;;;;;;16.37;11.93;;;11.40;99.90;;;;;;5008682;28;20195;-81
2021/10/09 09:27:39;;;;;;;21.00;12.70;;;11.70;99.90;;;;;;5022405;28;20205;-80
2021/10/09 09:41:27;;;;;;;19.33;13.80;;;11.90;99.90;;;;;;5024648;28;20576;-79
2021/10/09 09:43:54;;;;;;;17.97;13.23;;;11.80;99.90;;;;;;5039089;28;20202;-80
2021/10/09 09:46:28;;;;;;;15.73;13.60;;;11.90;99.90;;;;;;5039418;28;20209;-81
2021/10/09 09:48:54;;;;;;;17.37;12.40;;;12.00;99.90;;;;;;5036948;28;20193;-81
2021/10/09 09:51:22;;;;;;;17.77;13.87;;;12.10;99.90;;;;;;5023929;28;20181;-80
2021/10/09 09:53:49;;;;;;;18.13;14.00;;;12.10;99.90;;;;;;5022084;28;20294;-80
2021/10/09 09:56:17;;;;;;;19.23;14.57;;;12.20;99.90;;;;;;5035793;28;20195;-80
2021/10/09 09:58:56;;;;;;;16.00;13.60;;;12.30;99.90;;;;;;5030949;28;20174;-81
2021/10/09 10:01:25;;;;;;;15.30;13.63;;;12.30;99.90;;;;;;5023453;28;20656;-80
2021/10/09 10:03:53;;;;;;;17.23;14.50;;;12.30;99.90;;;;;;5012966;28;20178;-80
2021/10/09 10:06:20;;;;;;;15.27;13.13;;;12.40;99.90;;;;;;5024489;28;20201;-82
2021/10/09 10:08:46;;;;;;;19.30;13.40;;;12.40;99.90;;;;;;5005550;28;20571;-80
2021/10/09 10:11:16;;;;;;;15.23;12.90;;;12.40;99.90;;;;;;5023410;28;20173;-80
2021/10/09 10:13:43;;;;;;;16.07;13.73;;;12.50;99.90;;;;;;5023190;28;20213;-80
2021/10/09 10:16:11;;;;;;;16.73;14.07;;;12.70;99.90;;;;;;5021217;28;20198;-80
2021/10/09 10:18:48;;;;;;;15.10;13.23;;;12.80;99.90;;;;;;5036880;28;20194;-82
2021/10/09 10:21:28;;;;;;;15.30;12.80;;;12.90;99.90;;;;;;5026843;28;20177;-82
2021/10/09 10:23:54;;;;;;;15.87;12.70;;;12.90;99.90;;;;;;5002731;28;20237;-82
2021/10/09 10:26:28;;;;;;;16.83;13.07;;;12.90;99.90;;;;;;5014191;28;20225;-79
2021/10/09 10:28:54;;;;;;;13.77;12.10;;;13.00;99.90;;;;;;5024192;28;20195;-80
2021/10/09 10:31:20;;;;;;;17.47;12.30;;;13.00;99.90;;;;;;5023831;28;20172;-81
2021/10/09 10:33:57;;;;;;;17.73;12.30;;;13.10;99.90;;;;;;5004692;28;20189;-81
2021/10/09 10:36:40;;;;;;;15.60;11.87;;;13.10;99.90;;;;;;5031373;28;20275;-80
2021/10/09 10:39:07;;;;;;;15.50;10.30;;;13.20;99.90;;;;;;5025970;28;20186;-81
2021/10/09 10:41:48;;;;;;;15.67;10.60;;;13.30;99.90;;;;;;5004780;28;20171;-81
2021/10/09 10:44:47;;;;;;;12.43;11.13;;;13.40;99.90;;;;;;5023854;28;20176;-80
2021/10/09 10:47:59;;;;;;;12.73;10.70;;;13.40;99.90;;;;;;4997680;28;20250;-80
2021/10/09 10:53:29;;;;;;;15.40;11.53;;;13.60;99.90;;;;;;5010999;28;20187;-80
2021/10/09 10:56:06;;;;;;;14.67;10.60;;;13.70;99.90;;;;;;5006634;28;20649;-81
2021/10/09 10:58:32;;;;;;;13.00;10.30;;;13.80;99.90;;;;;;5023168;28;20234;-81
2021/10/09 11:01:20;;;;;;;13.27;10.83;;;13.90;99.90;;;;;;5020203;28;20204;-81
2021/10/09 11:03:48;;;;;;;12.43;10.70;;;14.10;99.90;;;;;;5042629;28;20178;-81
2021/10/09 11:06:16;;;;;;;11.17;10.03;;;14.10;99.90;;;;;;5008967;28;20581;-81
2021/10/09 11:08:43;;;;;;;13.87;10.53;;;14.20;99.90;;;;;;5022354;28;20615;-80
2021/10/09 11:11:09;;;;;;;13.10;10.83;;;14.20;99.90;;;;;;5008575;28;20514;-82
2021/10/09 11:13:34;;;;;;;14.40;10.70;;;14.40;99.90;;;;;;5022360;28;20185;-81
2021/10/09 11:16:03;;;;;;;11.27;10.07;;;14.40;99.90;;;;;;5042252;28;20358;-81
2021/10/09 11:18:28;;;;;;;11.60;9.90;;;14.60;99.90;;;;;;5041028;28;20174;-81
2021/10/09 11:21:01;;;;;;;11.90;10.77;;;14.60;99.90;;;;;;5009271;28;20198;-81
2021/10/09 11:23:27;;;;;;;11.40;10.20;;;14.50;99.90;;;;;;5039438;28;20182;-80
2021/10/09 11:25:54;;;;;;;15.60;10.20;;;14.50;99.90;;;;;;5030864;28;20657;-81
2021/10/09 11:28:28;;;;;;;12.67;10.90;;;14.60;99.90;;;;;;5028112;28;20198;-80
2021/10/09 11:30:54;;;;;;;13.30;10.47;;;14.70;99.90;;;;;;5032554;28;20163;-81
2021/10/09 11:33:27;;;;;;;11.23;10.13;;;14.80;99.90;;;;;;5028389;28;20178;-81
2021/10/09 11:35:55;;;;;;;13.27;10.10;;;14.80;99.90;;;;;;5027979;28;20261;-80
2021/10/09 11:38:32;;;;;;;15.90;10.03;;;14.80;99.90;;;;;;5018209;28;20192;-80
2021/10/09 11:41:03;;;;;;;13.30;10.17;;;14.50;99.90;;;;;;5025526;28;20750;-81
2021/10/09 11:46:14;;;;;;;12.53;9.73;;;14.90;99.90;;;;;;5038138;28;20197;-79
2021/10/09 11:57:12;;;;;;;13.03;9.90;;;15.00;99.90;;;;;;5034850;28;20195;-81
2021/10/09 11:59:40;;;;;;;10.23;9.27;;;15.00;99.90;;;;;;5042933;28;20235;-82
2021/10/09 12:02:06;;;;;;;11.53;9.33;;;15.00;99.90;;;;;;5035054;28;20167;-81
2021/10/09 12:04:32;;;;;;;18.57;9.60;;;15.10;99.90;;;;;;5007370;28;20176;-82
2021/10/09 12:09:34;;;;;;;10.97;9.10;;;15.20;99.90;;;;;;5039928;28;20200;-82
2021/10/09 12:12:15;;;;;;;9.90;8.87;;;15.20;99.90;;;;;;5032235;28;20170;-82
2021/10/09 12:14:41;;;;;;;13.37;9.90;;;15.40;99.90;;;;;;5030608;28;20230;-82
2021/10/09 12:17:07;;;;;;;11.20;9.23;;;15.40;99.90;;;;;;5026485;28;20702;-81
2021/10/09 12:19:33;;;;;;;9.40;8.50;;;15.40;99.90;;;;;;5038989;28;20179;-82
2021/10/09 12:22:07;;;;;;;11.10;9.13;;;15.50;99.90;;;;;;5007967;28;20176;-82
2021/10/09 12:24:54;;;;;;;12.40;9.87;;;15.60;99.90;;;;;;5033997;28;20224;-81
2021/10/09 12:27:28;;;;;;;10.87;9.63;;;15.60;99.90;;;;;;5041847;28;20454;-81
2021/10/09 12:30:01;;;;;;;10.80;9.17;;;15.60;99.90;;;;;;5025755;28;20171;-80
2021/10/09 12:32:28;;;;;;;10.23;9.07;;;15.60;99.90;;;;;;5024421;28;20261;-81
2021/10/09 12:35:13;;;;;;;10.30;9.20;;;15.60;99.90;;;;;;5024814;28;20698;-81
2021/10/09 12:37:53;;;;;;;12.33;9.73;;;15.40;99.90;;;;;;5027940;28;20206;-82
2021/10/09 12:40:19;;;;;;;11.03;9.97;;;15.50;99.90;;;;;;5032786;28;20174;-83
2021/10/09 12:42:48;;;;;;;12.83;10.43;;;15.60;99.90;;;;;;5023250;28;20688;-82
2021/10/09 12:45:15;;;;;;;12.10;9.23;;;15.50;99.90;;;;;;5024547;28;20173;-81
2021/10/09 12:47:42;;;;;;;12.23;9.83;;;15.60;99.90;;;;;;5038346;28;20694;-82
2021/10/09 12:50:08;;;;;;;11.00;9.30;;;15.70;99.90;;;;;;5026041;28;20167;-81
2021/10/09 12:52:34;;;;;;;9.90;9.00;;;15.60;99.90;;;;;;5034962;28;20175;-81
2021/10/09 12:55:02;;;;;;;11.13;8.40;;;15.70;99.90;;;;;;5024026;28;20186;-81
2021/10/09 12:57:31;;;;;;;10.97;9.80;;;15.70;99.90;;;;;;5023530;28;20689;-80
2021/10/09 12:59:59;;;;;;;11.20;10.00;;;15.70;99.90;;;;;;5030455;28;20664;-80
2021/10/09 13:02:24;;;;;;;15.17;10.20;;;15.70;99.90;;;;;;5032032;28;20176;-83
2021/10/09 13:04:50;;;;;;;14.37;11.27;;;15.60;99.90;;;;;;5005889;28;20203;-82
2021/10/09 13:07:17;;;;;;;12.23;10.27;;;15.60;99.90;;;;;;5005729;28;20249;-82
2021/10/09 13:09:43;;;;;;;14.53;10.37;;;15.60;99.90;;;;;;5023252;28;20175;-81
2021/10/09 13:12:12;;;;;;;12.23;10.53;;;15.70;99.90;;;;;;5028161;28;20181;-82
2021/10/09 13:14:38;;;;;;;12.43;9.80;;;15.60;99.90;;;;;;5029185;28;20167;-81
2021/10/09 13:17:03;;;;;;;11.90;9.23;;;15.60;99.90;;;;;;5023970;28;20230;-82
2021/10/09 13:19:29;;;;;;;11.90;10.67;;;15.60;99.90;;;;;;5005404;28;20183;-80
2021/10/09 13:21:55;;;;;;;14.10;10.07;;;15.60;99.90;;;;;;5006960;28;20171;-81
2021/10/09 13:24:21;;;;;;;12.67;9.60;;;15.60;99.90;;;;;;5022819;28;20186;-80
2021/10/09 13:26:46;;;;;;;11.90;10.47;;;15.60;99.90;;;;;;5006468;28;20310;-80
2021/10/09 13:29:12;;;;;;;11.00;9.90;;;15.50;99.90;;;;;;5036181;28;20206;-79
2021/10/09 13:31:38;;;;;;;12.27;10.27;;;15.40;99.90;;;;;;5005521;28;20665;-83
2021/10/09 13:34:03;;;;;;;12.57;11.17;;;15.40;99.90;;;;;;5021626;28;20199;-80
2021/10/09 13:36:29;;;;;;;13.17;11.53;;;15.30;99.90;;;;;;5023260;28;20245;-83
2021/10/09 13:38:55;;;;;;;11.57;10.37;;;15.30;99.90;;;;;;5005705;28;20623;-81
2021/10/09 13:41:21;;;;;;;12.13;10.33;;;15.20;99.90;;;;;;5006478;28;20187;-82
2021/10/09 13:43:47;;;;;;;13.20;9.70;;;15.30;99.90;;;;;;5036730;28;20257;-82
2021/10/09 13:48:47;;;;;;;11.07;10.07;;;15.30;99.90;;;;;;5050452;28;20240;-85
2021/10/09 13:51:13;;;;;;;12.43;9.53;;;15.30;99.90;;;;;;5060189;28;20171;-85
2021/10/09 13:53:48;;;;;;;12.53;9.57;;;15.30;99.90;;;;;;5058936;28;20170;-85
2021/10/09 13:56:13;;;;;;;15.40;10.40;;;15.30;99.90;;;;;;5060622;28;20177;-83
2021/10/09 13:58:40;;;;;;;11.10;9.40;;;15.40;99.90;;;;;;5041215;28;20273;-83
2021/10/09 14:01:06;;;;;;;12.47;9.40;;;15.40;99.90;;;;;;5040656;28;20546;-84
2021/10/09 14:03:34;;;;;;;11.07;10.07;;;15.30;99.90;;;;;;5039492;28;20171;-83
2021/10/09 14:06:00;;;;;;;10.47;9.47;;;15.30;99.90;;;;;;5039616;28;20261;-83
2021/10/09 14:08:27;;;;;;;12.57;10.03;;;15.20;99.90;;;;;;5031157;28;20248;-83
2021/10/09 14:10:57;;;;;;;17.30;9.50;;;15.30;99.90;;;;;;5039748;28;20261;-83
2021/10/09 14:13:23;;;;;;;14.40;10.43;;;15.30;99.90;;;;;;5040808;28;20185;-83
2021/10/09 14:15:50;;;;;;;11.77;9.83;;;15.30;99.90;;;;;;5040128;28;20182;-84
2021/10/09 14:18:16;;;;;;;16.03;11.13;;;15.20;99.90;;;;;;5045364;28;20195;-83
2021/10/09 14:20:45;;;;;;;15.40;11.03;;;15.20;99.90;;;;;;5052238;28;20178;-83
2021/10/09 14:23:10;;;;;;;13.57;11.30;;;15.30;99.90;;;;;;5049995;28;20202;-84
2021/10/09 14:25:36;;;;;;;13.10;11.40;;;15.30;99.90;;;;;;5041171;28;20182;-84
2021/10/09 14:28:02;;;;;;;13.57;9.57;;;15.30;99.90;;;;;;5040861;28;20205;-84
2021/10/09 14:30:29;;;;;;;13.60;11.10;;;15.30;99.90;;;;;;5039735;28;20508;-84
2021/10/09 14:32:54;;;;;;;13.10;11.33;;;15.30;99.90;;;;;;5023972;28;20217;-81
2021/10/09 14:35:20;;;;;;;15.30;10.93;;;15.30;99.90;;;;;;5030453;28;20170;-85
2021/10/09 14:37:46;;;;;;;12.73;11.23;;;15.30;99.90;;;;;;5041047;28;20202;-84
2021/10/09 14:40:13;;;;;;;15.00;11.40;;;15.30;99.90;;;;;;5041208;28;20183;-84
2021/10/09 14:42:38;;;;;;;15.43;11.53;;;15.30;99.90;;;;;;5041281;28;20606;-84
2021/10/09 14:45:05;;;;;;;12.30;11.00;;;15.30;99.90;;;;;;5034579;28;20186;-84
2021/10/09 14:47:37;;;;;;;12.90;10.97;;;15.20;99.90;;;;;;5040735;28;20249;-84
2021/10/09 15:19:29;;;;;;;18.17;11.47;;;14.90;99.90;;;;;;5039771;28;20181;-84
2021/10/09 15:21:55;;;;;;;13.10;11.03;;;14.80;99.90;;;;;;5039063;28;20669;-83